createdAt,value
2023-04-10T00:01:21.492Z,51.30
2023-04-10T00:03:49.456Z,56.70
2023-04-10T00:06:17.445Z,54.30
2023-04-10T00:08:45.345Z,58.50
2023-04-10T00:11:13.684Z,57.30
2023-04-10T00:13:41.833Z,57.30
2023-04-10T00:16:09.910Z,53.50
2023-04-10T00:18:37.716Z,55.80
2023-04-10T00:21:06.319Z,52.00
2023-04-10T00:23:35.009Z,53.40
2023-04-10T00:26:03.417Z,56.10
2023-04-10T00:28:31.810Z,55.30
2023-04-10T00:30:59.822Z,55.20
2023-04-10T00:33:27.497Z,52.00
2023-04-10T00:35:55.590Z,58.10
2023-04-10T00:38:23.458Z,53.20
2023-04-10T00:40:51.651Z,54.30
2023-04-10T00:43:20.412Z,55.30
2023-04-10T00:45:49.974Z,52.40
2023-04-10T00:48:18.872Z,54.60
2023-04-10T00:50:47.554Z,56.10
2023-04-10T00:53:16.879Z,52.30
2023-04-10T00:55:46.094Z,55.00
2023-04-10T00:58:14.789Z,57.90
2023-04-10T01:00:45.937Z,53.80
2023-04-10T01:03:17.423Z,52.70
2023-04-10T01:05:57.344Z,56.70
2023-04-10T01:08:47.661Z,58.10
2023-04-10T01:11:30.945Z,57.10
2023-04-10T01:14:07.439Z,61.40
2023-04-10T01:16:46.620Z,57.80
2023-04-10T01:19:52.741Z,56.00
2023-04-10T01:22:25.428Z,59.60
2023-04-10T01:25:12.821Z,61.40
2023-04-10T01:27:54.446Z,60.20
2023-04-10T01:30:23.761Z,58.60
2023-04-10T01:32:56.036Z,58.80
2023-04-10T01:35:26.166Z,60.80
2023-04-10T01:37:55.091Z,58.10
2023-04-10T01:40:25.950Z,64.40
2023-04-10T01:42:57.207Z,64.00
2023-04-10T01:45:28.731Z,62.60
2023-04-10T01:47:56.864Z,65.00
2023-04-10T01:50:28.033Z,62.60
2023-04-10T01:52:57.940Z,59.40
2023-04-10T01:55:27.660Z,63.20
2023-04-10T01:57:56.565Z,62.50
2023-04-10T02:00:24.347Z,60.40
2023-04-10T02:02:52.301Z,65.60
2023-04-10T02:05:22.184Z,66.50
2023-04-10T02:08:02.270Z,64.50
2023-04-10T02:10:36.575Z,69.20
2023-04-10T02:13:11.658Z,65.10
2023-04-10T02:15:43.826Z,63.10
2023-04-10T02:18:15.992Z,61.00
2023-04-10T02:20:44.881Z,62.70
2023-04-10T02:23:14.508Z,64.70
2023-04-10T02:25:45.331Z,64.80
2023-04-10T02:28:13.124Z,63.90
2023-04-10T02:30:41.284Z,63.70
2023-04-10T02:33:09.055Z,65.30
2023-04-10T02:35:37.849Z,66.40
2023-04-10T02:38:06.024Z,64.00
2023-04-10T02:40:33.871Z,63.90
2023-04-10T02:43:02.330Z,61.20
2023-04-10T02:45:30.501Z,61.80
2023-04-10T02:47:58.314Z,64.30
2023-04-10T02:50:29.733Z,62.70
2023-04-10T02:52:57.480Z,60.40
2023-04-10T02:55:25.320Z,65.50
2023-04-10T02:57:53.742Z,66.40
2023-04-10T03:00:23.143Z,67.00
2023-04-10T03:02:51.568Z,64.10
2023-04-10T03:05:20.055Z,64.60
2023-04-10T03:07:47.766Z,66.40
2023-04-10T03:10:15.945Z,65.90
2023-04-10T03:12:43.699Z,65.20
2023-04-10T03:15:12.782Z,65.80
2023-04-10T03:17:41.166Z,67.60
2023-04-10T03:20:09.831Z,67.10
2023-04-10T03:22:37.570Z,65.20
2023-04-10T03:25:06.660Z,69.50
2023-04-10T03:27:35.110Z,68.10
2023-04-10T03:30:03.258Z,68.20
2023-04-10T03:32:31.363Z,63.60
2023-04-10T03:34:59.440Z,71.40
2023-04-10T03:37:27.875Z,70.90
2023-04-10T03:39:55.985Z,69.30
2023-04-10T03:42:24.676Z,69.80
2023-04-10T03:44:52.484Z,68.80
2023-04-10T03:47:20.316Z,67.90
2023-04-10T03:49:48.100Z,75.40
2023-04-10T03:52:16.088Z,71.20
2023-04-10T03:54:43.859Z,69.30
2023-04-10T03:57:12.138Z,75.00
2023-04-10T03:59:39.965Z,72.50
2023-04-10T04:02:08.298Z,72.80
2023-04-10T04:04:36.214Z,68.40
2023-04-10T04:07:04.051Z,73.70
2023-04-10T04:09:32.035Z,74.30
2023-04-10T04:11:59.852Z,79.30
2023-04-10T04:14:27.612Z,73.00
2023-04-10T04:16:55.609Z,71.90
2023-04-10T04:19:23.405Z,73.00
2023-04-10T04:21:51.349Z,73.90
2023-04-10T04:24:19.076Z,85.10
2023-04-10T04:26:47.590Z,74.90
2023-04-10T04:29:15.626Z,71.80
2023-04-10T04:31:43.600Z,70.60
2023-04-10T04:34:11.522Z,76.90
2023-04-10T04:36:39.780Z,75.20
2023-04-10T04:39:07.953Z,73.20
2023-04-10T04:41:36.115Z,68.40
2023-04-10T04:44:05.190Z,76.60
2023-04-10T04:46:33.140Z,69.90
2023-04-10T04:49:00.924Z,72.00
2023-04-10T04:51:31.683Z,74.10
2023-04-10T04:53:59.905Z,72.10
2023-04-10T04:56:28.080Z,74.40
2023-04-10T04:58:56.126Z,66.20
2023-04-10T05:01:24.063Z,74.20
2023-04-10T05:03:51.903Z,73.60
2023-04-10T05:06:20.481Z,73.40
2023-04-10T05:08:49.238Z,76.20
2023-04-10T05:11:17.773Z,85.60
2023-04-10T05:13:46.129Z,78.10
2023-04-10T05:16:14.027Z,75.40
2023-04-10T05:18:41.983Z,78.00
2023-04-10T05:21:09.779Z,80.50
2023-04-10T05:23:38.350Z,76.80
2023-04-10T05:26:06.962Z,71.90
2023-04-10T05:28:34.839Z,74.10
2023-04-10T05:31:02.726Z,85.30
2023-04-10T05:33:30.629Z,77.50
2023-04-10T05:35:58.640Z,71.90
2023-04-10T05:38:26.920Z,71.80
2023-04-10T05:40:55.646Z,72.30
2023-04-10T05:43:23.554Z,80.10
2023-04-10T05:45:51.294Z,72.70
2023-04-10T05:48:19.072Z,65.90
2023-04-10T05:50:46.930Z,66.60
2023-04-10T05:53:15.544Z,71.10
2023-04-10T05:55:43.896Z,67.20
2023-04-10T05:58:11.702Z,69.00
2023-04-10T06:00:39.399Z,65.10
2023-04-10T06:03:07.222Z,63.50
2023-04-10T06:05:35.500Z,65.10
2023-04-10T06:08:03.977Z,71.30
2023-04-10T06:10:32.873Z,61.30
2023-04-10T06:13:00.965Z,59.60
2023-04-10T06:15:29.520Z,55.90
2023-04-10T06:17:57.349Z,72.60
2023-04-10T06:20:25.476Z,91.60
2023-04-10T06:22:54.458Z,64.40
2023-04-10T06:25:22.999Z,61.60
2023-04-10T06:27:51.458Z,57.30
2023-04-10T06:30:19.244Z,55.60
2023-04-10T06:32:47.040Z,58.80
2023-04-10T06:35:14.794Z,54.70
2023-04-10T06:37:43.704Z,54.80
2023-04-10T06:40:14.158Z,58.90
2023-04-10T06:42:42.428Z,49.00
2023-04-10T06:45:10.561Z,50.50
2023-04-10T06:47:38.524Z,49.30
2023-04-10T06:50:06.687Z,50.70
2023-04-10T06:52:34.498Z,52.90
2023-04-10T06:55:03.298Z,51.30
2023-04-10T06:57:31.190Z,48.50
2023-04-10T06:59:59.170Z,51.70
2023-04-10T07:02:27.182Z,47.70
2023-04-10T07:04:57.036Z,48.30
2023-04-10T07:07:25.765Z,47.20
2023-04-10T07:09:54.159Z,46.40
2023-04-10T07:12:23.043Z,45.30
2023-04-10T07:14:51.056Z,45.70
2023-04-10T07:17:18.850Z,42.70
2023-04-10T07:19:46.792Z,45.00
2023-04-10T07:22:15.895Z,43.20
2023-04-10T07:24:44.452Z,41.40
2023-04-10T07:27:13.090Z,37.80
2023-04-10T07:29:41.261Z,40.20
2023-04-10T07:32:12.590Z,38.70
2023-04-10T07:34:42.242Z,39.80
2023-04-10T07:37:10.558Z,38.20
2023-04-10T07:39:39.009Z,42.00
2023-04-10T07:42:06.895Z,35.20
2023-04-10T07:44:34.651Z,31.10
2023-04-10T07:47:03.718Z,32.50
2023-04-10T07:49:31.722Z,29.30
2023-04-10T07:51:59.964Z,30.00
2023-04-10T07:54:31.470Z,30.60
2023-04-10T07:57:02.701Z,28.90
2023-04-10T07:59:30.550Z,23.90
2023-04-10T08:01:58.448Z,30.10
2023-04-10T08:04:26.843Z,27.00
2023-04-10T08:06:55.289Z,26.30
2023-04-10T08:09:23.655Z,28.10
2023-04-10T08:11:51.399Z,25.50
2023-04-10T08:14:19.409Z,23.80
2023-04-10T08:16:47.218Z,22.30
2023-04-10T08:19:15.150Z,25.60
2023-04-10T08:21:43.529Z,25.50
2023-04-10T08:24:11.857Z,24.00
2023-04-10T08:26:39.686Z,23.20
2023-04-10T08:29:14.724Z,21.80
2023-04-10T08:31:42.901Z,24.10
2023-04-10T08:34:11.173Z,23.40
2023-04-10T08:36:39.427Z,23.20
2023-04-10T08:39:07.477Z,24.10
2023-04-10T08:41:41.532Z,21.20
2023-04-10T08:44:09.692Z,22.30
2023-04-10T08:46:43.913Z,18.50
2023-04-10T08:49:18.913Z,22.60
2023-04-10T08:51:54.391Z,18.70
2023-04-10T08:54:28.333Z,20.20
2023-04-10T08:56:58.598Z,19.20
2023-04-10T08:59:30.288Z,18.60
2023-04-10T09:02:03.399Z,20.90
2023-04-10T09:04:32.022Z,19.10
2023-04-10T09:07:00.753Z,18.00
2023-04-10T09:09:32.491Z,19.30
2023-04-10T09:12:01.919Z,19.80
2023-04-10T09:14:35.364Z,19.90
2023-04-10T09:19:41.740Z,20.10
2023-04-10T09:22:09.971Z,18.70
2023-04-10T09:24:43.861Z,19.90
2023-04-10T09:27:27.597Z,19.00
2023-04-10T09:32:42.885Z,16.20
2023-04-10T09:35:13.619Z,19.90
2023-04-10T09:37:45.206Z,19.40
2023-04-10T09:40:24.789Z,15.70
2023-04-10T09:42:56.139Z,17.00
2023-04-10T09:45:24.602Z,16.00
2023-04-10T09:48:02.450Z,19.50
2023-04-10T09:50:41.246Z,18.00
2023-04-10T09:53:12.085Z,13.70
2023-04-10T09:55:42.422Z,17.80
2023-04-10T09:58:14.637Z,19.00
2023-04-10T10:00:48.201Z,18.90
2023-04-10T10:03:23.448Z,17.70
2023-04-10T10:05:53.420Z,17.50
2023-04-10T10:08:22.205Z,16.80
2023-04-10T10:10:53.974Z,19.50
2023-04-10T10:13:29.489Z,18.50
2023-04-10T10:16:03.120Z,19.00
2023-04-10T10:18:47.247Z,16.80
2023-04-10T10:21:17.048Z,18.30
2023-04-10T10:23:46.291Z,16.60
2023-04-10T10:26:14.771Z,18.00
2023-04-10T10:28:43.960Z,14.00
2023-04-10T10:31:12.657Z,16.10
2023-04-10T10:33:41.505Z,12.60
2023-04-10T10:36:11.875Z,19.50
2023-04-10T10:38:45.336Z,15.20
2023-04-10T10:43:52.889Z,11.90
2023-04-10T10:46:29.596Z,14.50
2023-04-10T10:49:00.363Z,18.70
2023-04-10T10:51:52.337Z,14.90
2023-04-10T10:54:34.769Z,13.20
2023-04-10T10:57:05.519Z,13.60
2023-04-10T10:59:59.853Z,14.30
2023-04-10T11:02:28.225Z,12.20
2023-04-10T11:04:56.241Z,23.10
2023-04-10T11:07:59.210Z,13.00
2023-04-10T11:11:05.769Z,10.30
2023-04-10T11:14:01.473Z,15.30
2023-04-10T11:16:41.069Z,13.60
2023-04-10T11:19:16.214Z,17.10
2023-04-10T11:22:09.211Z,12.60
2023-04-10T11:25:02.007Z,17.70
2023-04-10T11:27:52.889Z,14.50
2023-04-10T11:30:32.511Z,17.60
2023-04-10T11:33:01.911Z,18.90
2023-04-10T11:35:31.929Z,17.10
2023-04-10T11:38:12.580Z,15.40
2023-04-10T11:40:57.276Z,14.60
2023-04-10T11:43:25.108Z,18.70
2023-04-10T11:46:08.828Z,28.10
2023-04-10T11:48:37.834Z,30.70
2023-04-10T11:51:10.495Z,24.10
2023-04-10T11:53:39.422Z,23.80
2023-04-10T11:56:16.532Z,23.80
2023-04-10T11:58:45.438Z,18.30
2023-04-10T12:01:14.786Z,17.60
2023-04-10T12:03:44.363Z,18.30
2023-04-10T12:06:14.565Z,15.40
2023-04-10T12:08:46.202Z,23.70
2023-04-10T12:11:18.282Z,16.70
2023-04-10T12:13:46.585Z,14.00
2023-04-10T12:16:14.976Z,11.90
2023-04-10T12:18:43.330Z,11.20
2023-04-10T12:21:11.905Z,11.70
2023-04-10T12:23:40.691Z,12.30
2023-04-10T12:26:16.359Z,10.70
2023-04-10T12:29:06.344Z,12.40
2023-04-10T12:31:37.023Z,9.40
2023-04-10T12:34:07.080Z,9.20
2023-04-10T12:36:37.598Z,11.00
2023-04-10T12:39:21.772Z,11.30
2023-04-10T12:41:49.740Z,12.70
2023-04-10T12:44:19.350Z,13.70
2023-04-10T12:46:47.669Z,16.00
2023-04-10T12:49:17.303Z,11.60
2023-04-10T12:51:52.487Z,14.40
2023-04-10T12:54:32.225Z,11.80
2023-04-10T12:57:02.061Z,11.70
2023-04-10T12:59:31.550Z,9.90
2023-04-10T13:01:59.657Z,9.80
2023-04-10T13:04:31.742Z,12.60
2023-04-10T13:06:59.569Z,11.50
2023-04-10T13:09:27.773Z,11.90
2023-04-10T13:11:57.688Z,12.10
2023-04-10T13:14:26.230Z,14.00
2023-04-10T13:16:57.095Z,12.60
2023-04-10T13:19:24.866Z,14.80
2023-04-10T13:21:53.238Z,11.90
2023-04-10T13:24:22.109Z,12.80
2023-04-10T13:26:50.517Z,12.00
2023-04-10T13:29:18.293Z,10.10
2023-04-10T13:31:46.389Z,9.10
2023-04-10T13:34:14.678Z,7.20
2023-04-10T13:36:43.101Z,12.20
2023-04-10T13:39:11.411Z,13.40
2023-04-10T13:41:39.146Z,9.30
2023-04-10T13:44:06.857Z,9.10
2023-04-10T13:46:35.269Z,12.70
2023-04-10T13:49:03.174Z,8.20
2023-04-10T13:51:31.024Z,10.80
2023-04-10T13:53:59.597Z,9.80
2023-04-10T13:56:29.961Z,8.50
2023-04-10T13:58:57.707Z,11.20
2023-04-10T14:01:26.484Z,9.00
2023-04-10T14:03:54.630Z,11.00
2023-04-10T14:06:22.488Z,12.50
2023-04-10T14:08:50.730Z,13.30
2023-04-10T14:11:18.447Z,6.90
2023-04-10T14:13:46.258Z,4.70
2023-04-10T14:16:14.990Z,7.60
2023-04-10T14:18:42.729Z,12.40
2023-04-10T14:21:10.753Z,10.60
2023-04-10T14:23:39.005Z,12.50
2023-04-10T14:26:06.821Z,10.70
2023-04-10T14:28:35.108Z,10.80
2023-04-10T14:31:04.803Z,11.30
2023-04-10T14:33:32.545Z,13.10
2023-04-10T14:36:00.333Z,12.00
2023-04-10T14:38:28.773Z,10.50
2023-04-10T14:40:56.467Z,13.60
2023-04-10T14:43:24.177Z,14.00
2023-04-10T14:45:52.377Z,16.50
2023-04-10T14:48:21.376Z,12.80
2023-04-10T14:50:49.703Z,16.40
2023-04-10T14:53:18.090Z,15.70
2023-04-10T14:55:46.074Z,14.70
2023-04-10T14:58:14.588Z,16.60
2023-04-10T15:00:43.801Z,14.00
2023-04-10T15:03:11.535Z,12.70
2023-04-10T15:05:39.392Z,11.60
2023-04-10T15:08:07.963Z,10.20
2023-04-10T15:10:36.266Z,11.10
2023-04-10T15:13:04.263Z,11.50
2023-04-10T15:15:32.046Z,18.00
2023-04-10T15:18:00.095Z,24.30
2023-04-10T15:20:27.910Z,22.60
2023-04-10T15:22:56.180Z,18.50
2023-04-10T15:25:24.463Z,11.50
2023-04-10T15:27:55.382Z,12.40
2023-04-10T15:30:23.285Z,13.70
2023-04-10T15:32:51.073Z,14.50
2023-04-10T15:35:19.237Z,15.80
2023-04-10T15:37:47.615Z,18.20
2023-04-10T15:40:16.126Z,18.70
2023-04-10T15:42:43.879Z,10.80
2023-04-10T15:45:12.057Z,9.80
2023-04-10T15:47:39.961Z,9.50
2023-04-10T15:50:10.204Z,11.30
2023-04-10T15:52:39.065Z,14.30
2023-04-10T15:55:07.799Z,9.70
2023-04-10T15:57:36.218Z,11.40
2023-04-10T16:00:05.406Z,10.40
2023-04-10T16:02:33.328Z,9.40
2023-04-10T16:05:02.019Z,13.00
2023-04-10T16:07:30.798Z,9.90
2023-04-10T16:09:58.597Z,9.70
2023-04-10T16:12:26.311Z,9.00
2023-04-10T16:14:54.271Z,12.90
2023-04-10T16:17:22.097Z,10.00
2023-04-10T16:19:50.516Z,16.00
2023-04-10T16:22:18.810Z,12.90
2023-04-10T16:24:46.592Z,28.40
2023-04-10T16:27:14.364Z,42.40
2023-04-10T16:29:42.145Z,34.30
2023-04-10T16:32:10.568Z,28.40
2023-04-10T16:34:38.719Z,29.70
2023-04-10T16:37:07.760Z,35.40
2023-04-10T16:39:35.663Z,61.20
2023-04-10T16:42:04.917Z,205.00
2023-04-10T16:44:32.901Z,200.70
2023-04-10T16:47:01.983Z,220.40
2023-04-10T16:49:29.963Z,176.30
2023-04-10T16:51:57.713Z,144.80
2023-04-10T16:54:25.635Z,122.60
2023-04-10T16:56:53.602Z,111.00
2023-04-10T16:59:21.933Z,62.30
2023-04-10T17:01:51.441Z,50.00
2023-04-10T17:04:20.219Z,50.50
2023-04-10T17:06:48.246Z,38.90
2023-04-10T17:09:16.130Z,35.00
2023-04-10T17:11:47.176Z,30.50
2023-04-10T17:14:16.171Z,28.70
2023-04-10T17:16:45.879Z,33.30
2023-04-10T17:19:18.509Z,33.40
2023-04-10T17:21:46.321Z,60.40
2023-04-10T17:24:14.189Z,140.90
2023-04-10T17:26:42.049Z,121.00
2023-04-10T17:29:10.351Z,132.40
2023-04-10T17:31:38.710Z,115.80
2023-04-10T17:34:06.754Z,116.80
2023-04-10T17:36:34.545Z,90.90
2023-04-10T17:39:02.342Z,92.70
2023-04-10T17:41:30.259Z,82.50
2023-04-10T17:43:58.769Z,85.40
2023-04-10T17:46:27.162Z,90.20
2023-04-10T17:48:59.982Z,90.90
2023-04-10T17:51:28.339Z,93.90
2023-04-10T17:53:56.093Z,107.60
2023-04-10T17:56:24.508Z,111.20
2023-04-10T17:58:54.469Z,88.80
2023-04-10T18:01:30.314Z,69.00
2023-04-10T18:03:59.302Z,58.30
2023-04-10T18:06:27.832Z,54.00
2023-04-10T18:08:57.389Z,56.90
2023-04-10T18:11:25.569Z,53.60
2023-04-10T18:13:53.408Z,57.30
2023-04-10T18:16:21.187Z,60.50
2023-04-10T18:18:49.352Z,64.10
2023-04-10T18:21:21.072Z,76.70
2023-04-10T18:23:48.827Z,48.80
2023-04-10T18:26:16.590Z,44.50
2023-04-10T18:28:46.380Z,57.70
2023-04-10T18:31:16.032Z,72.70
2023-04-10T18:33:43.849Z,65.80
2023-04-10T18:36:14.088Z,76.20
2023-04-10T18:38:43.897Z,69.70
2023-04-10T18:41:11.753Z,67.80
2023-04-10T18:43:40.066Z,69.80
2023-04-10T18:46:09.001Z,63.40
2023-04-10T18:48:43.151Z,56.80
2023-04-10T18:51:11.813Z,52.80
2023-04-10T18:53:41.019Z,50.80
2023-04-10T18:56:09.264Z,48.70
2023-04-10T18:58:37.139Z,50.80
2023-04-10T19:01:05.048Z,53.40
2023-04-10T19:03:33.267Z,57.30
2023-04-10T19:06:01.414Z,57.40
2023-04-10T19:08:30.229Z,52.00
2023-04-10T19:10:58.066Z,54.20
2023-04-10T19:13:25.898Z,52.20
2023-04-10T19:15:53.689Z,60.80
2023-04-10T19:18:21.488Z,50.40
2023-04-10T19:20:52.921Z,60.70
2023-04-10T19:23:22.106Z,67.80
2023-04-10T19:25:55.177Z,75.70
2023-04-10T19:28:29.526Z,70.90
2023-04-10T19:31:00.907Z,72.10
2023-04-10T19:33:32.327Z,80.40
2023-04-10T19:36:00.903Z,80.80
2023-04-10T19:38:29.573Z,85.50
2023-04-10T19:40:57.576Z,74.30
2023-04-10T19:43:25.626Z,79.20
2023-04-10T19:45:56.411Z,76.90
2023-04-10T19:48:24.631Z,77.70
2023-04-10T19:50:53.037Z,74.50
2023-04-10T19:53:21.034Z,69.10
2023-04-10T19:55:48.844Z,62.90
2023-04-10T19:58:30.532Z,66.40
2023-04-10T20:01:07.040Z,65.00
2023-04-10T20:03:37.007Z,67.60
2023-04-10T20:06:07.612Z,67.00
2023-04-10T20:08:35.956Z,72.30
2023-04-10T20:11:06.370Z,65.10
2023-04-10T20:13:35.018Z,65.30
2023-04-10T20:16:03.500Z,70.60
2023-04-10T20:18:32.340Z,82.10
2023-04-10T20:21:00.152Z,83.90
2023-04-10T20:23:27.942Z,94.80
2023-04-10T20:25:55.935Z,103.30
2023-04-10T20:28:23.762Z,96.70
2023-04-10T20:30:52.146Z,86.50
2023-04-10T20:33:20.391Z,94.00
2023-04-10T20:35:48.153Z,97.80
2023-04-10T20:38:18.309Z,94.30
2023-04-10T20:40:46.098Z,88.10
2023-04-10T20:43:14.275Z,84.60
2023-04-10T20:45:42.383Z,91.10
2023-04-10T20:48:11.249Z,87.20
2023-04-10T20:50:46.780Z,76.30
2023-04-10T20:53:14.616Z,76.90
2023-04-10T20:55:42.546Z,75.60
2023-04-10T20:58:10.381Z,75.20
2023-04-10T21:00:41.861Z,80.90
2023-04-10T21:03:09.904Z,79.20
2023-04-10T21:05:41.843Z,73.60
2023-04-10T21:08:11.467Z,71.60
2023-04-10T21:10:48.625Z,65.10
2023-04-10T21:13:16.630Z,60.30
2023-04-10T21:15:44.876Z,58.10
2023-04-10T21:18:12.661Z,58.60
2023-04-10T21:20:40.418Z,63.10
2023-04-10T21:23:08.188Z,60.70
2023-04-10T21:25:36.588Z,63.00
2023-04-10T21:28:04.777Z,62.20
2023-04-10T21:30:32.502Z,65.60
2023-04-10T21:33:00.347Z,59.30
2023-04-10T21:35:28.297Z,54.40
2023-04-10T21:38:01.383Z,51.70
2023-04-10T21:40:34.770Z,48.60
2023-04-10T21:43:23.325Z,49.20
2023-04-10T21:45:51.621Z,51.00
2023-04-10T21:48:22.498Z,47.10
2023-04-10T21:50:51.410Z,45.50
2023-04-10T21:53:19.580Z,43.60
2023-04-10T21:55:47.857Z,44.10
2023-04-10T21:58:16.427Z,43.80
2023-04-10T22:00:47.433Z,44.90
2023-04-10T22:03:16.354Z,43.50
2023-04-10T22:05:44.368Z,43.40
2023-04-10T22:08:12.170Z,42.20
2023-04-10T22:10:39.912Z,45.30
2023-04-10T22:13:16.975Z,44.00
2023-04-10T22:15:54.381Z,43.80
2023-04-10T22:18:22.421Z,42.60
2023-04-10T22:20:50.296Z,42.70
2023-04-10T22:23:18.184Z,46.70
2023-04-10T22:25:46.021Z,46.50
2023-04-10T22:28:13.930Z,45.30
2023-04-10T22:30:41.825Z,48.70
2023-04-10T22:33:10.538Z,42.10
2023-04-10T22:35:38.588Z,42.20
2023-04-10T22:38:07.833Z,41.00
2023-04-10T22:40:35.804Z,42.20
2023-04-10T22:43:03.499Z,38.50
2023-04-10T22:45:31.378Z,42.50
2023-04-10T22:47:59.469Z,43.10
2023-04-10T22:50:27.249Z,43.00
2023-04-10T22:52:55.463Z,46.50
2023-04-10T22:55:23.183Z,48.30
2023-04-10T22:57:51.283Z,47.20
2023-04-10T23:00:19.206Z,51.90
2023-04-10T23:02:47.252Z,49.30
2023-04-10T23:05:15.873Z,47.20
2023-04-10T23:07:43.634Z,45.80
2023-04-10T23:10:11.650Z,47.20
2023-04-10T23:12:39.397Z,42.90
2023-04-10T23:15:08.644Z,39.70
2023-04-10T23:17:36.548Z,40.40
2023-04-10T23:20:04.671Z,37.30
2023-04-10T23:22:32.451Z,38.90
2023-04-10T23:25:00.334Z,40.30
2023-04-10T23:27:28.084Z,40.90
2023-04-10T23:29:55.784Z,41.00
2023-04-10T23:32:23.888Z,41.90
2023-04-10T23:34:51.629Z,38.70
2023-04-10T23:37:19.386Z,40.00
2023-04-10T23:39:50.635Z,35.50
2023-04-10T23:42:18.379Z,35.60
2023-04-10T23:44:46.106Z,35.60
2023-04-10T23:47:13.876Z,41.60
2023-04-10T23:49:41.623Z,38.80
2023-04-10T23:52:10.334Z,37.30
2023-04-10T23:54:38.208Z,35.00
2023-04-10T23:57:06.102Z,38.00
2023-04-10T23:59:33.844Z,40.20
